Time;durP1;ratioP1;P1;durP2;ratioP2;P2;SDS_P1;SDS_P2;PMS_P1;PMS_P2;Temp;Humidity;BMP_temperature;BMP_pressure;BME280_temperature;BME280_humidity;BME280_pressure;Samples;Min_cycle;Max_cycle;Signal;HPM_P1;HPM_P2
2023/08/11 00:01:41;;;;;;;3.20;2.90;;;19.30;97.50;;;;;;4838500;29;20191;-92
2023/08/11 00:04:07;;;;;;;2.70;2.50;;;19.30;97.60;;;;;;4838183;29;20179;-94
2023/08/11 00:06:33;;;;;;;3.03;2.77;;;19.30;97.70;;;;;;4838493;29;20436;-93
2023/08/11 00:08:59;;;;;;;6.00;3.30;;;19.30;97.80;;;;;;4837986;29;20224;-94
2023/08/11 00:11:25;;;;;;;4.20;3.37;;;19.20;97.80;;;;;;4837427;29;20207;-94
2023/08/11 00:13:51;;;;;;;2.70;2.50;;;19.20;97.90;;;;;;4838204;29;20421;-92
2023/08/11 00:16:18;;;;;;;6.27;3.13;;;19.20;97.90;;;;;;4838049;29;20996;-93
2023/08/11 00:18:45;;;;;;;2.57;2.37;;;19.20;97.90;;;;;;4838112;29;20193;-92
2023/08/11 00:21:12;;;;;;;3.03;2.73;;;19.20;98.00;;;;;;4837298;29;20879;-93
2023/08/11 00:23:39;;;;;;;2.93;2.67;;;19.10;98.00;;;;;;4837084;29;20419;-93
2023/08/11 00:26:06;;;;;;;3.10;2.80;;;19.10;98.20;;;;;;4836910;29;20462;-93
2023/08/11 00:28:32;;;;;;;3.20;2.90;;;19.00;98.20;;;;;;4836243;29;21189;-93
2023/08/11 00:30:57;;;;;;;2.83;2.57;;;19.00;98.40;;;;;;4836964;29;20587;-94
2023/08/11 00:33:23;;;;;;;3.20;3.00;;;19.00;98.40;;;;;;4836278;29;20442;-92
2023/08/11 00:35:49;;;;;;;4.20;3.80;;;18.90;98.40;;;;;;4836873;29;20223;-93
2023/08/11 00:38:15;;;;;;;3.83;2.93;;;18.90;98.60;;;;;;4836742;29;20196;-93
2023/08/11 00:40:40;;;;;;;3.50;2.77;;;18.90;98.70;;;;;;4841977;29;20705;-93
2023/08/11 00:43:07;;;;;;;4.00;2.90;;;18.90;98.80;;;;;;4837453;29;20251;-93
2023/08/11 00:45:33;;;;;;;3.63;2.70;;;18.80;98.80;;;;;;4836502;29;20220;-92
2023/08/11 00:47:59;;;;;;;3.97;3.20;;;18.80;98.90;;;;;;4836348;29;20865;-93
2023/08/11 00:50:26;;;;;;;5.50;3.00;;;18.80;99.10;;;;;;4836511;29;20630;-93
2023/08/11 00:52:52;;;;;;;3.60;3.10;;;18.80;99.10;;;;;;4837659;29;20467;-94
2023/08/11 00:55:18;;;;;;;3.13;2.83;;;18.80;99.30;;;;;;4836550;29;20466;-93
2023/08/11 00:57:45;;;;;;;3.03;2.67;;;18.80;99.30;;;;;;4836277;29;20419;-93
2023/08/11 01:00:12;;;;;;;3.10;2.80;;;18.80;99.40;;;;;;4836069;29;20518;-93
2023/08/11 01:02:43;;;;;;;3.57;3.23;;;18.80;99.60;;;;;;4836375;29;20535;-92
2023/08/11 01:05:17;;;;;;;3.93;2.90;;;18.80;99.90;;;;;;4836501;29;20463;-92
2023/08/11 01:07:51;;;;;;;5.30;3.70;;;18.80;99.90;;;;;;4837156;29;21083;-93
2023/08/11 01:10:33;;;;;;;3.67;3.37;;;18.80;99.90;;;;;;4837971;29;20602;-93
2023/08/11 01:13:02;;;;;;;3.87;3.47;;;18.80;99.90;;;;;;4836920;29;20853;-92
2023/08/11 01:15:37;;;;;;;4.97;3.50;;;18.70;99.90;;;;;;4841405;29;20460;-93
2023/08/11 01:18:05;;;;;;;3.77;3.43;;;18.70;99.90;;;;;;4840228;29;20426;-93
2023/08/11 01:20:33;;;;;;;4.50;3.70;;;18.60;99.90;;;;;;4839267;29;20502;-92
2023/08/11 01:23:01;;;;;;;5.20;3.23;;;18.60;99.90;;;;;;4841185;29;20422;-93
2023/08/11 01:25:28;;;;;;;4.30;3.30;;;18.60;99.90;;;;;;4840444;29;20469;-93
2023/08/11 01:27:54;;;;;;;8.13;4.33;;;18.60;99.90;;;;;;4840142;29;20483;-94
2023/08/11 01:30:20;;;;;;;5.70;3.67;;;18.50;99.90;;;;;;4840165;29;20561;-92
2023/08/11 01:32:46;;;;;;;5.13;3.70;;;18.50;99.90;;;;;;4841913;29;20222;-91
2023/08/11 01:35:11;;;;;;;4.87;4.27;;;18.50;99.90;;;;;;4853194;29;20475;-93
2023/08/11 01:37:39;;;;;;;4.33;3.93;;;18.50;99.90;;;;;;4846319;29;20437;-92
2023/08/11 01:40:10;;;;;;;4.93;3.80;;;18.50;99.90;;;;;;4845815;29;20225;-94
2023/08/11 01:42:40;;;;;;;7.73;4.30;;;18.40;99.90;;;;;;4842596;29;20453;-92
2023/08/11 01:45:11;;;;;;;5.23;4.20;;;18.40;99.90;;;;;;4840772;29;20552;-92
2023/08/11 01:47:38;;;;;;;4.57;4.10;;;18.40;99.90;;;;;;4839658;29;20569;-93
2023/08/11 01:50:07;;;;;;;4.20;3.60;;;18.40;99.90;;;;;;4839930;29;20467;-93
2023/08/11 01:52:36;;;;;;;5.47;4.47;;;18.40;99.90;;;;;;4839311;29;20441;-93
2023/08/11 01:55:02;;;;;;;6.73;4.50;;;18.30;99.90;;;;;;4840664;29;20455;-93
2023/08/11 01:57:28;;;;;;;4.30;3.90;;;18.30;99.90;;;;;;4840611;29;20795;-92
2023/08/11 01:59:54;;;;;;;5.40;4.40;;;18.30;99.90;;;;;;4840659;29;20477;-93
2023/08/11 02:02:19;;;;;;;4.87;4.40;;;18.20;99.90;;;;;;4839674;29;20926;-93
2023/08/11 02:04:45;;;;;;;5.90;4.37;;;18.20;99.90;;;;;;4840438;29;20276;-94
2023/08/11 02:07:11;;;;;;;5.90;4.70;;;18.20;99.90;;;;;;4839273;29;20439;-91
2023/08/11 02:09:37;;;;;;;5.47;4.87;;;18.20;99.90;;;;;;4839098;29;20213;-93
2023/08/11 02:12:03;;;;;;;5.00;4.20;;;18.10;99.90;;;;;;4839493;29;20905;-94
2023/08/11 02:14:28;;;;;;;5.33;4.50;;;18.10;99.90;;;;;;4839701;29;20455;-94
2023/08/11 02:16:54;;;;;;;6.50;5.43;;;18.10;99.90;;;;;;4839160;29;20977;-93
2023/08/11 02:19:20;;;;;;;7.70;4.57;;;18.10;99.90;;;;;;4838722;29;20190;-93
2023/08/11 02:21:45;;;;;;;8.90;5.10;;;18.10;99.90;;;;;;4840435;29;20187;-93
2023/08/11 02:24:11;;;;;;;5.03;4.60;;;18.00;99.90;;;;;;4839183;29;20197;-94
2023/08/11 02:26:37;;;;;;;5.70;4.80;;;18.00;99.90;;;;;;4840479;29;20181;-94
2023/08/11 02:29:03;;;;;;;9.23;4.60;;;18.00;99.90;;;;;;4838648;29;20314;-94
2023/08/11 02:31:32;;;;;;;4.73;4.23;;;18.00;99.90;;;;;;4838107;29;20201;-93
2023/08/11 02:33:59;;;;;;;8.50;4.90;;;17.90;99.90;;;;;;4838829;29;20433;-92
2023/08/11 02:36:25;;;;;;;6.40;4.60;;;17.90;99.90;;;;;;4846528;29;20434;-92
2023/08/11 02:38:51;;;;;;;8.00;5.10;;;17.90;99.90;;;;;;4848363;29;20433;-93
2023/08/11 02:41:18;;;;;;;8.17;5.27;;;17.90;99.90;;;;;;4839355;29;20509;-93
2023/08/11 02:43:44;;;;;;;7.07;5.13;;;17.90;99.90;;;;;;4838380;29;20286;-92
2023/08/11 02:46:10;;;;;;;6.30;5.10;;;17.80;99.90;;;;;;4840175;29;20541;-94
2023/08/11 02:48:38;;;;;;;5.03;4.50;;;17.80;99.90;;;;;;4838110;29;20477;-92
2023/08/11 02:51:04;;;;;;;6.97;4.60;;;17.80;99.90;;;;;;4839125;29;20675;-92
2023/08/11 02:53:31;;;;;;;5.20;4.70;;;17.70;99.90;;;;;;4839423;29;20429;-93
2023/08/11 02:55:57;;;;;;;5.70;5.10;;;17.80;99.90;;;;;;4840040;29;20508;-93
2023/08/11 02:58:23;;;;;;;7.60;5.33;;;17.70;99.90;;;;;;4839143;29;20418;-92
2023/08/11 03:00:49;;;;;;;5.73;4.90;;;17.60;99.90;;;;;;4839688;29;20810;-94
2023/08/11 03:03:15;;;;;;;7.27;5.03;;;17.60;99.90;;;;;;4839908;29;20632;-93
2023/08/11 03:05:43;;;;;;;5.70;5.20;;;17.70;99.90;;;;;;4838311;29;20479;-94
2023/08/11 03:08:09;;;;;;;7.10;5.40;;;17.80;99.90;;;;;;4840761;29;20209;-93
2023/08/11 03:10:35;;;;;;;6.53;5.20;;;17.90;99.90;;;;;;4842832;29;20577;-93
2023/08/11 03:13:00;;;;;;;6.67;6.00;;;18.00;99.90;;;;;;4838073;29;20985;-92
2023/08/11 03:15:26;;;;;;;8.40;5.80;;;18.00;99.90;;;;;;4837787;29;20211;-93
2023/08/11 03:17:54;;;;;;;9.40;5.97;;;18.10;99.90;;;;;;4837648;29;20221;-91
2023/08/11 03:20:20;;;;;;;6.50;5.27;;;18.10;99.90;;;;;;4837923;29;20209;-94
2023/08/11 03:22:46;;;;;;;8.63;5.47;;;18.10;99.90;;;;;;4837823;29;20418;-92
2023/08/11 03:25:12;;;;;;;8.03;4.53;;;18.20;99.90;;;;;;4838169;29;20213;-94
2023/08/11 03:27:42;;;;;;;8.50;6.20;;;18.20;99.90;;;;;;4838642;29;20617;-93
2023/08/11 03:30:10;;;;;;;8.10;5.63;;;18.20;99.90;;;;;;4838105;29;20502;-94
2023/08/11 03:32:38;;;;;;;7.20;5.77;;;18.20;99.90;;;;;;4839215;29;20477;-93
2023/08/11 03:35:05;;;;;;;5.83;5.30;;;18.00;99.90;;;;;;4837268;29;20536;-93
2023/08/11 03:37:32;;;;;;;6.00;5.40;;;17.90;99.90;;;;;;4838766;29;20440;-92
2023/08/11 03:39:57;;;;;;;7.40;5.50;;;17.70;99.90;;;;;;4837702;29;20738;-93
2023/08/11 03:42:23;;;;;;;10.33;5.90;;;17.60;99.90;;;;;;4837533;29;20481;-93
2023/08/11 03:44:51;;;;;;;8.40;5.93;;;17.50;99.90;;;;;;4837345;29;20213;-92
2023/08/11 03:47:19;;;;;;;6.13;5.53;;;17.40;99.90;;;;;;4839755;29;20263;-93
2023/08/11 03:49:45;;;;;;;10.40;6.37;;;17.40;99.90;;;;;;4840587;29;20543;-93
2023/08/11 03:52:12;;;;;;;6.73;5.23;;;17.30;99.90;;;;;;4844310;29;20473;-92
2023/08/11 03:54:38;;;;;;;8.70;6.17;;;17.30;99.90;;;;;;4837987;29;20548;-93
2023/08/11 03:57:04;;;;;;;10.20;5.57;;;17.30;99.90;;;;;;4839705;29;20461;-92
2023/08/11 03:59:30;;;;;;;10.03;6.40;;;17.30;99.90;;;;;;4840672;29;20508;-93
2023/08/11 04:01:55;;;;;;;10.57;6.40;;;17.30;99.90;;;;;;4844374;29;20173;-92
2023/08/11 04:04:21;;;;;;;9.00;6.90;;;17.30;99.90;;;;;;4836893;29;20445;-93
2023/08/11 04:06:47;;;;;;;25.87;12.97;;;17.30;99.90;;;;;;4845441;29;20588;-91
2023/08/11 04:09:12;;;;;;;9.90;6.83;;;17.30;99.90;;;;;;4831890;29;20198;-94
2023/08/11 04:11:38;;;;;;;7.13;5.70;;;17.50;99.90;;;;;;4825227;29;20191;-92
2023/08/11 04:14:04;;;;;;;7.80;7.00;;;17.50;99.90;;;;;;4829381;29;20251;-93
2023/08/11 04:16:30;;;;;;;8.53;6.30;;;17.50;99.90;;;;;;4837428;29;20240;-94
2023/08/11 04:18:55;;;;;;;11.07;6.93;;;17.50;99.90;;;;;;4832801;29;20182;-91
2023/08/11 04:21:23;;;;;;;10.80;6.53;;;17.50;99.90;;;;;;4828195;29;20221;-93
2023/08/11 04:23:49;;;;;;;9.97;6.13;;;17.50;99.90;;;;;;4827615;29;20191;-93
2023/08/11 04:26:14;;;;;;;12.47;6.37;;;17.50;99.90;;;;;;4857777;29;20597;-93
2023/08/11 04:28:43;;;;;;;9.13;6.30;;;17.60;99.90;;;;;;4826404;29;20461;-90
2023/08/11 04:31:09;;;;;;;10.10;6.90;;;17.60;99.90;;;;;;4838500;29;20304;-93
2023/08/11 04:33:35;;;;;;;8.40;6.60;;;17.60;99.90;;;;;;4837370;29;20421;-93
2023/08/11 04:36:02;;;;;;;9.73;6.30;;;17.60;99.90;;;;;;4837039;29;20557;-92
2023/08/11 04:38:31;;;;;;;7.70;5.67;;;17.60;99.90;;;;;;4818118;29;20483;-94
2023/08/11 04:40:58;;;;;;;10.53;6.20;;;17.70;99.90;;;;;;4842068;29;20472;-93
2023/08/11 04:43:24;;;;;;;6.57;5.80;;;17.70;99.90;;;;;;4836334;29;20428;-93
2023/08/11 04:45:49;;;;;;;11.23;6.83;;;17.80;99.90;;;;;;4837254;29;20844;-93
2023/08/11 04:48:16;;;;;;;8.53;7.23;;;17.80;99.90;;;;;;4836500;29;20798;-92
2023/08/11 04:50:42;;;;;;;20.80;14.40;;;17.90;99.90;;;;;;4836359;29;20225;-93
2023/08/11 04:53:08;;;;;;;12.30;8.30;;;18.00;99.90;;;;;;4836559;29;20444;-92
2023/08/11 04:55:34;;;;;;;9.80;7.10;;;18.00;99.90;;;;;;4837372;29;20304;-92
2023/08/11 04:58:00;;;;;;;7.50;6.73;;;18.10;99.90;;;;;;4836560;29;20773;-93
2023/08/11 05:00:26;;;;;;;6.87;6.17;;;18.20;99.90;;;;;;4836608;29;20936;-94
2023/08/11 05:02:52;;;;;;;7.50;5.77;;;18.30;99.90;;;;;;4835015;29;20494;-94
2023/08/11 05:05:19;;;;;;;7.90;6.87;;;18.30;99.90;;;;;;4836252;29;20219;-95
2023/08/11 05:07:45;;;;;;;14.20;7.00;;;18.40;99.90;;;;;;4835995;29;20210;-94
2023/08/11 05:10:12;;;;;;;10.93;6.30;;;18.50;99.90;;;;;;4834989;29;20496;-94
2023/08/11 05:12:38;;;;;;;7.47;6.20;;;18.50;99.90;;;;;;4835104;29;20414;-95
2023/08/11 05:15:05;;;;;;;7.80;5.73;;;18.60;99.90;;;;;;4839953;29;20470;-94
2023/08/11 05:17:31;;;;;;;6.40;5.43;;;18.70;99.90;;;;;;4843307;29;20533;-94
2023/08/11 05:19:57;;;;;;;10.93;6.83;;;18.80;99.90;;;;;;4837104;29;20469;-94
2023/08/11 05:22:23;;;;;;;8.67;6.20;;;18.80;99.90;;;;;;4835213;29;20457;-94
2023/08/11 05:24:49;;;;;;;6.93;5.77;;;18.90;99.90;;;;;;4836087;29;20510;-94
2023/08/11 05:27:15;;;;;;;8.83;5.53;;;18.90;99.90;;;;;;4832208;29;20986;-94
2023/08/11 05:29:47;;;;;;;6.70;5.60;;;19.00;99.90;;;;;;4825779;29;20460;-94
2023/08/11 05:32:12;;;;;;;8.30;6.20;;;19.10;99.90;;;;;;4836374;29;20969;-94
2023/08/11 05:34:38;;;;;;;8.23;6.43;;;19.20;99.90;;;;;;4836741;29;20507;-93
2023/08/11 05:37:05;;;;;;;9.97;5.97;;;19.20;99.90;;;;;;4834325;29;20185;-93
2023/08/11 05:39:32;;;;;;;6.83;5.90;;;19.30;99.90;;;;;;4832548;29;20593;-93
2023/08/11 05:41:58;;;;;;;6.80;5.73;;;19.40;99.90;;;;;;4833332;29;20430;-94
2023/08/11 05:44:24;;;;;;;6.43;5.73;;;19.40;99.90;;;;;;4839854;29;20750;-94
2023/08/11 05:46:51;;;;;;;8.63;6.30;;;19.50;99.90;;;;;;4837175;29;20434;-94
2023/08/11 05:49:16;;;;;;;6.57;5.70;;;19.50;99.90;;;;;;4837032;29;20192;-93
2023/08/11 05:51:42;;;;;;;5.70;4.93;;;19.60;99.90;;;;;;4831048;29;20842;-94
2023/08/11 05:54:09;;;;;;;5.80;5.20;;;19.70;99.90;;;;;;4819043;29;20224;-93
2023/08/11 05:56:35;;;;;;;5.90;5.30;;;19.80;99.90;;;;;;4828610;29;20248;-93
2023/08/11 05:59:00;;;;;;;7.80;5.77;;;19.80;99.90;;;;;;4828239;29;20455;-94
2023/08/11 06:01:26;;;;;;;6.60;5.60;;;19.90;99.90;;;;;;4837000;29;20257;-93
2023/08/11 06:03:52;;;;;;;6.10;5.23;;;20.00;99.90;;;;;;4835261;29;20169;-93
2023/08/11 06:06:18;;;;;;;5.47;4.97;;;20.10;99.90;;;;;;4833750;29;20249;-94
2023/08/11 06:08:45;;;;;;;6.93;4.77;;;20.10;99.90;;;;;;4852306;29;20235;-94
2023/08/11 06:11:11;;;;;;;7.03;5.37;;;20.20;99.90;;;;;;4835400;29;20545;-93
2023/08/11 06:13:37;;;;;;;5.90;5.30;;;20.30;99.90;;;;;;4831679;29;20437;-93
2023/08/11 06:16:03;;;;;;;6.30;5.00;;;20.40;99.90;;;;;;4835029;29;20240;-93
2023/08/11 06:18:29;;;;;;;6.47;5.20;;;20.50;99.90;;;;;;4836855;29;20259;-94
2023/08/11 06:20:55;;;;;;;6.20;5.13;;;20.60;99.90;;;;;;4837426;29;20496;-94
2023/08/11 06:23:21;;;;;;;9.10;5.50;;;20.60;99.90;;;;;;4837773;29;20478;-94
2023/08/11 06:25:47;;;;;;;4.97;4.53;;;20.70;99.90;;;;;;4836948;29;20221;-94
2023/08/11 06:28:14;;;;;;;7.03;4.97;;;20.80;99.90;;;;;;4838490;29;20476;-93
2023/08/11 06:30:39;;;;;;;9.80;5.10;;;20.80;99.90;;;;;;4825802;29;20305;-94
2023/08/11 06:33:05;;;;;;;5.00;4.60;;;20.90;99.90;;;;;;4833343;29;20850;-93
2023/08/11 06:35:31;;;;;;;5.63;4.30;;;20.90;99.90;;;;;;4833516;29;20828;-93
2023/08/11 06:37:59;;;;;;;5.63;5.13;;;20.90;99.90;;;;;;4828226;29;20377;-94
2023/08/11 06:40:25;;;;;;;7.67;4.43;;;20.90;99.90;;;;;;4832256;29;20220;-94
2023/08/11 06:42:51;;;;;;;5.73;4.83;;;21.00;99.90;;;;;;4836863;29;20440;-93
2023/08/11 06:45:17;;;;;;;4.33;3.93;;;21.00;99.90;;;;;;4831694;29;20765;-95
2023/08/11 06:47:42;;;;;;;4.90;4.50;;;21.10;99.90;;;;;;4828347;29;20213;-95
2023/08/11 06:50:08;;;;;;;5.70;4.33;;;21.10;99.90;;;;;;4832795;29;20217;-92
2023/08/11 06:52:34;;;;;;;9.53;5.73;;;21.10;99.90;;;;;;4829561;29;20181;-94
2023/08/11 06:55:00;;;;;;;5.10;4.60;;;21.30;99.90;;;;;;4830184;29;20534;-92
2023/08/11 06:57:26;;;;;;;6.23;4.47;;;21.40;99.90;;;;;;4835579;29;20442;-93
2023/08/11 06:59:52;;;;;;;4.20;3.80;;;21.40;99.90;;;;;;4855360;29;20221;-94
2023/08/11 07:02:18;;;;;;;4.17;3.87;;;21.60;99.90;;;;;;4826621;29;20189;-93
2023/08/11 07:04:45;;;;;;;4.40;4.00;;;21.60;99.90;;;;;;4824391;29;20465;-95
2023/08/11 07:07:13;;;;;;;4.80;3.87;;;21.70;99.90;;;;;;4819415;29;20463;-94
2023/08/11 07:09:40;;;;;;;4.60;4.20;;;21.80;99.90;;;;;;4820804;29;20488;-95
2023/08/11 07:12:06;;;;;;;6.60;4.23;;;21.90;99.90;;;;;;4826891;29;20456;-94
2023/08/11 07:14:32;;;;;;;4.53;3.87;;;21.90;99.90;;;;;;4826454;29;20477;-95
2023/08/11 07:16:58;;;;;;;4.50;3.83;;;22.00;99.90;;;;;;4830536;29;20543;-95
2023/08/11 07:19:23;;;;;;;3.70;3.40;;;22.10;99.90;;;;;;4838485;29;20210;-94
2023/08/11 07:21:49;;;;;;;4.20;3.80;;;22.20;99.90;;;;;;4838258;29;20204;-93
2023/08/11 07:24:15;;;;;;;4.43;4.03;;;22.30;99.90;;;;;;4834588;29;20192;-94
2023/08/11 07:26:44;;;;;;;3.77;3.33;;;22.30;99.90;;;;;;4835176;29;20244;-94
2023/08/11 07:29:10;;;;;;;4.50;3.60;;;22.40;99.90;;;;;;4835187;29;20472;-94
2023/08/11 07:31:36;;;;;;;4.90;3.83;;;22.50;99.90;;;;;;4829914;29;20478;-95
2023/08/11 07:34:01;;;;;;;4.20;3.83;;;22.60;99.90;;;;;;4829283;29;20851;-94
2023/08/11 07:36:27;;;;;;;4.50;4.10;;;22.70;99.90;;;;;;4859837;29;20443;-94
2023/08/11 07:38:53;;;;;;;3.83;3.53;;;22.70;99.90;;;;;;4824251;29;20647;-93
2023/08/11 07:41:19;;;;;;;3.90;3.60;;;22.80;99.90;;;;;;4819669;29;20343;-95
2023/08/11 07:43:44;;;;;;;3.90;3.50;;;22.90;99.90;;;;;;4826800;29;20259;-94
2023/08/11 07:46:10;;;;;;;3.93;3.63;;;22.90;99.90;;;;;;4848658;29;20733;-94
2023/08/11 07:48:36;;;;;;;3.90;3.60;;;22.90;99.90;;;;;;4825685;29;20221;-94
2023/08/11 07:51:01;;;;;;;4.23;3.77;;;23.00;99.90;;;;;;4833616;29;20225;-94
2023/08/11 07:53:27;;;;;;;4.10;3.70;;;23.10;99.90;;;;;;4835800;29;20177;-92
2023/08/11 07:55:53;;;;;;;4.03;3.73;;;23.20;99.90;;;;;;4858784;29;20306;-94
2023/08/11 07:58:19;;;;;;;4.20;3.80;;;23.30;99.90;;;;;;4831833;29;20210;-94
2023/08/11 08:00:44;;;;;;;4.63;4.10;;;23.40;99.90;;;;;;4832002;29;20222;-95
2023/08/11 08:03:10;;;;;;;6.80;4.13;;;23.50;99.90;;;;;;4860298;29;20495;-93
2023/08/11 08:05:36;;;;;;;5.67;3.43;;;23.60;99.90;;;;;;4830000;29;20215;-92
2023/08/11 08:08:03;;;;;;;4.03;3.73;;;23.70;99.90;;;;;;4828207;29;20347;-92
2023/08/11 08:10:29;;;;;;;3.87;3.47;;;23.80;99.90;;;;;;4826096;29;20648;-94
2023/08/11 08:12:55;;;;;;;4.07;3.67;;;23.90;99.90;;;;;;4820753;29;20424;-93
2023/08/11 08:15:20;;;;;;;4.00;3.70;;;24.00;99.90;;;;;;4827861;29;20591;-95
2023/08/11 08:17:46;;;;;;;4.20;3.80;;;24.00;99.90;;;;;;4832235;29;20200;-94
2023/08/11 08:20:16;;;;;;;5.00;3.63;;;24.20;99.90;;;;;;4828074;29;20215;-94
2023/08/11 08:22:42;;;;;;;4.00;3.60;;;24.20;99.90;;;;;;4833254;29;20267;-95
2023/08/11 08:25:08;;;;;;;5.07;3.40;;;24.30;99.90;;;;;;4823327;29;20534;-94
2023/08/11 08:27:35;;;;;;;4.20;3.87;;;24.40;99.90;;;;;;4822851;29;20467;-95
2023/08/11 08:30:01;;;;;;;4.20;3.67;;;24.40;99.90;;;;;;4824630;29;20722;-95
2023/08/11 08:32:27;;;;;;;4.23;3.93;;;24.50;99.90;;;;;;4825806;29;20458;-95
2023/08/11 08:34:53;;;;;;;3.60;3.10;;;24.60;99.90;;;;;;4828233;29;20957;-95
2023/08/11 08:37:19;;;;;;;4.27;3.87;;;24.70;99.90;;;;;;4856130;29;20486;-93
2023/08/11 08:39:48;;;;;;;3.70;3.40;;;24.70;99.90;;;;;;4828702;29;20213;-94
2023/08/11 08:42:16;;;;;;;4.23;3.60;;;24.80;99.90;;;;;;4821716;29;20523;-95
2023/08/11 08:44:42;;;;;;;4.50;3.60;;;24.90;99.90;;;;;;4833152;29;20545;-95
2023/08/11 08:47:09;;;;;;;4.83;4.00;;;25.00;99.90;;;;;;4838718;29;20459;-95
2023/08/11 08:49:38;;;;;;;3.60;3.40;;;25.10;99.90;;;;;;4833315;29;20528;-94
2023/08/11 08:52:05;;;;;;;3.90;3.60;;;25.20;99.90;;;;;;4834830;29;20477;-94
2023/08/11 08:54:32;;;;;;;6.20;3.90;;;25.20;99.90;;;;;;4835259;29;20450;-95
2023/08/11 08:56:59;;;;;;;3.93;3.63;;;25.30;99.60;;;;;;4833750;29;20424;-94
2023/08/11 08:59:28;;;;;;;4.10;3.80;;;25.40;99.30;;;;;;4835187;29;20480;-94
2023/08/11 09:01:54;;;;;;;4.40;3.17;;;25.40;98.70;;;;;;4834340;29;20425;-93
2023/08/11 09:04:21;;;;;;;4.93;3.57;;;25.50;98.80;;;;;;4834043;29;20436;-93
2023/08/11 09:06:48;;;;;;;4.50;3.90;;;25.50;98.60;;;;;;4834802;29;20220;-96
2023/08/11 09:09:15;;;;;;;7.17;4.20;;;25.60;97.20;;;;;;4833835;29;20476;-94
2023/08/11 09:11:43;;;;;;;3.80;3.50;;;25.70;97.30;;;;;;4832996;29;20428;-95
2023/08/11 09:14:09;;;;;;;3.53;3.33;;;25.70;97.30;;;;;;4832382;29;20473;-95
2023/08/11 09:16:39;;;;;;;3.43;3.23;;;25.80;96.80;;;;;;4828706;29;20913;-94
2023/08/11 09:19:10;;;;;;;3.50;3.20;;;25.90;96.80;;;;;;4829545;29;20478;-95
2023/08/11 09:21:36;;;;;;;3.33;3.13;;;25.90;97.10;;;;;;4830761;29;20457;-95
2023/08/11 09:24:02;;;;;;;3.50;3.20;;;26.00;97.30;;;;;;4829762;29;20479;-95
2023/08/11 09:26:28;;;;;;;4.63;3.60;;;26.10;95.90;;;;;;4832058;29;20456;-94
2023/08/11 09:28:54;;;;;;;3.30;3.10;;;26.10;96.10;;;;;;4837629;29;20469;-94
2023/08/11 09:31:24;;;;;;;4.37;3.97;;;26.10;96.50;;;;;;4839433;29;20538;-95
2023/08/11 09:33:51;;;;;;;4.47;3.40;;;26.10;96.10;;;;;;4831785;29;20441;-95
2023/08/11 09:36:17;;;;;;;3.40;3.10;;;26.20;95.60;;;;;;4833920;29;20464;-94
2023/08/11 09:38:47;;;;;;;3.80;3.50;;;26.20;95.50;;;;;;4831582;29;20435;-94
2023/08/11 09:41:14;;;;;;;3.20;3.00;;;26.30;95.70;;;;;;4832283;29;20452;-94
2023/08/11 09:43:47;;;;;;;4.23;3.03;;;26.30;96.20;;;;;;4848153;29;21101;-94
2023/08/11 09:46:13;;;;;;;3.57;3.27;;;26.30;96.40;;;;;;4835640;29;20487;-94
2023/08/11 09:48:38;;;;;;;3.90;3.60;;;26.30;95.50;;;;;;4834814;29;20475;-94
2023/08/11 09:51:10;;;;;;;3.30;3.10;;;26.40;95.50;;;;;;4835669;29;20249;-94
2023/08/11 09:53:40;;;;;;;3.13;2.83;;;26.30;95.60;;;;;;4837210;29;20193;-95
2023/08/11 09:56:08;;;;;;;3.20;3.00;;;26.40;95.50;;;;;;4836384;29;20460;-95
2023/08/11 09:58:39;;;;;;;4.13;2.93;;;26.40;95.20;;;;;;4851429;29;20479;-93
2023/08/11 10:01:10;;;;;;;4.47;4.17;;;26.40;94.90;;;;;;4845708;29;20468;-95
2023/08/11 10:03:44;;;;;;;3.30;2.80;;;26.50;94.70;;;;;;4851554;29;20423;-95
2023/08/11 10:06:23;;;;;;;3.00;2.80;;;26.40;95.60;;;;;;4843834;29;21040;-95
2023/08/11 10:08:50;;;;;;;3.77;2.80;;;26.40;95.70;;;;;;4853837;29;20467;-94
2023/08/11 10:11:21;;;;;;;2.53;2.33;;;26.40;96.10;;;;;;4854894;29;20817;-94
2023/08/11 10:13:48;;;;;;;2.77;2.57;;;26.50;94.60;;;;;;4831130;29;21106;-93
2023/08/11 10:16:14;;;;;;;2.97;2.30;;;26.60;93.70;;;;;;4830205;29;20840;-95
2023/08/11 10:18:42;;;;;;;2.70;2.50;;;26.70;92.70;;;;;;4838444;29;20767;-91
2023/08/11 10:21:20;;;;;;;2.43;2.23;;;26.70;91.80;;;;;;4839437;29;20893;-95
2023/08/11 10:23:47;;;;;;;6.40;2.43;;;26.70;91.60;;;;;;4835042;29;20453;-94
2023/08/11 10:26:13;;;;;;;5.63;2.80;;;26.70;91.90;;;;;;4832390;29;20510;-94
2023/08/11 10:28:39;;;;;;;2.13;1.97;;;26.70;91.40;;;;;;4863151;29;20785;-93
2023/08/11 10:31:05;;;;;;;7.00;2.97;;;26.70;91.40;;;;;;4873780;29;20475;-91
2023/08/11 10:33:31;;;;;;;7.93;2.50;;;26.70;93.00;;;;;;4857680;29;20425;-95
2023/08/11 10:36:00;;;;;;;4.07;2.23;;;26.70;94.10;;;;;;4844489;29;20217;-95
2023/08/11 10:38:31;;;;;;;2.70;2.50;;;26.70;94.30;;;;;;4866957;29;20420;-93
2023/08/11 10:41:08;;;;;;;2.83;2.63;;;26.70;94.40;;;;;;4863446;29;20821;-95
2023/08/11 10:43:37;;;;;;;5.80;2.50;;;26.80;91.10;;;;;;4819245;29;20420;-94
2023/08/11 10:46:23;;;;;;;3.30;2.63;;;26.80;92.80;;;;;;4823673;29;20468;-95
2023/08/11 10:48:50;;;;;;;2.33;2.10;;;26.60;95.40;;;;;;4823785;29;20481;-95
2023/08/11 10:51:27;;;;;;;2.30;2.10;;;26.10;95.90;;;;;;4848255;29;20475;-95
2023/08/11 10:53:55;;;;;;;3.63;2.47;;;26.20;93.40;;;;;;4825914;29;20748;-95
2023/08/11 10:56:30;;;;;;;2.53;2.33;;;26.30;94.60;;;;;;4830048;29;20460;-95
2023/08/11 10:59:16;;;;;;;2.03;1.93;;;26.30;96.00;;;;;;4835342;29;20571;-94
2023/08/11 11:01:45;;;;;;;2.70;2.47;;;26.50;93.80;;;;;;4830174;29;20440;-95
2023/08/11 11:04:12;;;;;;;2.17;2.00;;;26.10;96.60;;;;;;4837374;29;20501;-95
2023/08/11 11:06:39;;;;;;;2.13;1.93;;;26.20;96.00;;;;;;4833764;29;21051;-94
2023/08/11 11:09:06;;;;;;;2.47;2.27;;;26.20;95.40;;;;;;4833682;29;20797;-94
2023/08/11 11:11:32;;;;;;;1.77;1.67;;;26.30;95.50;;;;;;4830203;29;20444;-93
2023/08/11 11:13:58;;;;;;;2.20;2.00;;;26.50;90.70;;;;;;4836334;29;20417;-94
2023/08/11 11:16:26;;;;;;;2.40;2.17;;;26.70;92.20;;;;;;4819497;29;20775;-93
2023/08/11 11:18:51;;;;;;;4.40;2.77;;;26.70;92.90;;;;;;4835542;29;20423;-93
2023/08/11 11:21:18;;;;;;;2.43;2.23;;;26.80;91.40;;;;;;4836865;29;20896;-94
2023/08/11 11:23:49;;;;;;;2.87;2.40;;;26.90;88.40;;;;;;4832792;29;20246;-94
2023/08/11 11:26:48;;;;;;;2.20;2.00;;;26.90;88.30;;;;;;4832708;29;20467;-94
2023/08/11 11:29:15;;;;;;;2.43;2.20;;;26.80;93.60;;;;;;4823571;29;20465;-94
2023/08/11 11:31:46;;;;;;;2.93;2.73;;;26.80;91.30;;;;;;4826405;29;20857;-92
2023/08/11 11:34:14;;;;;;;2.67;2.47;;;27.00;91.30;;;;;;4825520;29;20425;-94
2023/08/11 11:36:41;;;;;;;3.17;2.77;;;27.00;92.00;;;;;;4830725;29;20413;-94
2023/08/11 11:39:08;;;;;;;8.33;2.67;;;27.10;91.40;;;;;;4819936;29;20493;-93
2023/08/11 11:41:34;;;;;;;2.83;2.63;;;27.20;88.50;;;;;;4833982;29;20507;-93
2023/08/11 11:44:01;;;;;;;2.40;2.20;;;27.20;88.70;;;;;;4830786;29;20416;-94
2023/08/11 11:46:31;;;;;;;3.50;2.20;;;27.20;88.50;;;;;;4833439;29;20366;-92
2023/08/11 11:48:57;;;;;;;2.57;2.37;;;27.30;86.90;;;;;;4831142;29;20486;-94
2023/08/11 11:51:29;;;;;;;2.63;2.43;;;27.20;91.70;;;;;;4833405;29;20461;-94
2023/08/11 11:53:59;;;;;;;2.30;2.10;;;27.10;93.00;;;;;;4833843;29;20641;-94
2023/08/11 11:56:28;;;;;;;2.87;2.33;;;27.10;93.60;;;;;;4835450;29;20460;-93
2023/08/11 11:58:56;;;;;;;2.60;2.40;;;27.10;91.40;;;;;;4830077;29;20515;-93
2023/08/11 12:01:46;;;;;;;2.73;2.03;;;27.20;91.10;;;;;;4831751;29;21273;-93
2023/08/11 12:04:12;;;;;;;2.70;2.20;;;27.20;89.60;;;;;;4848606;29;20442;-94
2023/08/11 12:06:38;;;;;;;2.93;2.67;;;27.40;87.90;;;;;;4834177;29;20799;-95
2023/08/11 12:09:10;;;;;;;2.90;2.43;;;27.20;92.90;;;;;;4834167;29;20542;-94
2023/08/11 12:11:38;;;;;;;2.60;2.40;;;27.30;87.50;;;;;;4829340;29;20464;-94
2023/08/11 12:14:06;;;;;;;2.20;2.00;;;27.40;90.30;;;;;;4828354;29;20675;-95
2023/08/11 12:16:31;;;;;;;3.83;1.97;;;27.40;84.50;;;;;;4854223;29;20656;-94
2023/08/11 12:19:02;;;;;;;2.73;2.53;;;27.50;82.80;;;;;;4821921;29;20424;-94
2023/08/11 12:21:31;;;;;;;3.13;2.83;;;27.50;84.50;;;;;;4828222;29;20213;-94
2023/08/11 12:23:57;;;;;;;2.67;2.47;;;27.40;91.70;;;;;;4821136;29;20937;-94
2023/08/11 12:26:23;;;;;;;2.70;2.50;;;27.30;92.20;;;;;;4823891;29;20531;-94
2023/08/11 12:28:48;;;;;;;3.00;2.70;;;27.40;90.80;;;;;;4855764;29;20700;-93
2023/08/11 12:31:14;;;;;;;4.23;2.40;;;27.50;88.70;;;;;;4829523;29;20276;-95
2023/08/11 12:33:40;;;;;;;7.67;2.33;;;27.60;85.60;;;;;;4828826;29;20183;-94
2023/08/11 12:36:08;;;;;;;2.97;2.50;;;27.60;88.90;;;;;;4823445;29;21161;-93
2023/08/11 12:38:35;;;;;;;2.60;2.40;;;27.70;90.60;;;;;;4825066;29;21048;-94
2023/08/11 12:41:01;;;;;;;3.00;1.97;;;27.30;93.20;;;;;;4831114;29;21018;-93
2023/08/11 12:43:26;;;;;;;3.10;2.70;;;27.00;94.00;;;;;;4827109;29;20434;-92
2023/08/11 12:45:52;;;;;;;5.00;2.40;;;27.00;91.50;;;;;;4823555;29;20221;-93